Time;durP1;ratioP1;P1;durP2;ratioP2;P2;SDS_P1;SDS_P2;PMS_P1;PMS_P2;Temp;Humidity;BMP_temperature;BMP_pressure;BME280_temperature;BME280_humidity;BME280_pressure;Samples;Min_cycle;Max_cycle;Signal;HPM_P1;HPM_P2
2021/05/31 00:00:01;;;;;;;6.15;4.00;;;;;;;23.32;52.12;101344.30;1715228;82;21109;-50
2021/05/31 00:02:28;;;;;;;3.60;3.30;;;;;;;23.34;51.88;101349.04;1722786;82;21120;-50
2021/05/31 00:04:55;;;;;;;3.50;3.20;;;;;;;23.33;51.89;101344.66;1711801;82;21120;-50
2021/05/31 00:07:22;;;;;;;3.05;2.85;;;;;;;23.30;51.96;101346.17;1707734;82;21112;-50
2021/05/31 00:09:54;;;;;;;3.52;3.22;;;;;;;23.26;51.86;101342.02;1730105;81;21594;-52
2021/05/31 00:12:19;;;;;;;4.10;3.33;;;;;;;23.22;52.00;101343.17;1691984;82;21168;-50
2021/05/31 00:14:47;;;;;;;3.72;2.92;;;;;;;23.22;52.12;101341.84;1716549;82;21128;-49
2021/05/31 00:17:15;;;;;;;3.10;2.80;;;;;;;23.22;52.12;101342.70;1716851;81;21607;-50
2021/05/31 00:19:42;;;;;;;2.62;2.42;;;;;;;23.21;52.23;101341.45;1699748;82;21056;-49
2021/05/31 00:22:09;;;;;;;3.00;2.70;;;;;;;23.20;52.42;101339.77;1704314;82;21101;-50
2021/05/31 00:24:36;;;;;;;3.75;3.45;;;;;;;23.20;52.66;101341.09;1714454;82;21176;-49
2021/05/31 00:27:05;;;;;;;3.60;2.45;;;;;;;23.22;52.76;101343.17;1714388;81;21093;-49
2021/05/31 00:29:33;;;;;;;3.10;2.80;;;;;;;23.24;53.05;101333.30;1710147;82;21105;-50
2021/05/31 00:32:00;;;;;;;3.00;2.80;;;;;;;23.21;53.32;101333.02;1717857;81;21123;-49
2021/05/31 00:34:28;;;;;;;3.60;3.30;;;;;;;23.20;53.58;101333.98;1711185;82;21113;-50
2021/05/31 00:36:54;;;;;;;3.00;2.80;;;;;;;23.26;53.66;101339.36;1714296;81;21614;-50
2021/05/31 00:39:22;;;;;;;3.27;2.98;;;;;;;23.28;53.75;101333.01;1757864;80;21040;-50
2021/05/31 00:41:52;;;;;;;5.08;2.95;;;;;;;23.26;54.03;101336.70;1765136;79;21088;-50
2021/05/31 00:44:20;;;;;;;3.92;3.40;;;;;;;23.24;54.24;101337.28;1780192;79;21639;-50
2021/05/31 00:46:48;;;;;;;4.15;3.02;;;;;;;23.24;54.24;101335.95;1778177;80;21593;-51
2021/05/31 00:49:23;;;;;;;4.35;3.00;;;;;;;23.26;54.09;101339.36;1776603;79;21068;-50
2021/05/31 00:51:51;;;;;;;3.47;3.17;;;;;;;23.28;53.85;101340.11;1783473;79;21001;-50
2021/05/31 00:54:19;;;;;;;4.70;3.25;;;;;;;23.14;53.71;101330.87;1770729;79;21072;-49
2021/05/31 00:56:46;;;;;;;4.20;3.80;;;;;;;23.04;53.43;101336.40;1779476;79;21005;-49
2021/05/31 00:59:14;;;;;;;4.65;4.22;;;;;;;22.93;53.04;101333.56;1763697;79;21065;-50
2021/05/31 01:01:42;;;;;;;8.00;4.92;;;;;;;22.85;52.82;101335.86;1744733;81;21092;-50
2021/05/31 01:04:09;;;;;;;5.17;4.67;;;;;;;22.80;52.84;101337.94;1715171;82;21077;-50
2021/05/31 01:06:40;;;;;;;6.40;4.53;;;;;;;22.74;52.84;101335.67;1770344;80;21085;-50
2021/05/31 01:09:17;;;;;;;5.30;4.60;;;;;;;22.64;52.96;101336.27;1775151;79;21055;-49
2021/05/31 01:12:06;;;;;;;4.92;4.20;;;;;;;22.56;53.04;101327.91;1778202;79;21048;-50
2021/05/31 01:15:02;;;;;;;4.67;4.30;;;;;;;22.67;52.86;101334.37;1763231;79;21618;-49
2021/05/31 01:18:03;;;;;;;4.97;4.47;;;;;;;22.64;53.01;101337.59;1785070;79;21591;-49
2021/05/31 01:20:57;;;;;;;5.12;4.62;;;;;;;22.56;53.16;101338.98;1791686;79;21088;-49
2021/05/31 01:23:28;;;;;;;3.87;3.58;;;;;;;22.50;53.12;101337.53;1768190;80;21052;-48
2021/05/31 01:26:19;;;;;;;6.45;4.15;;;;;;;22.45;53.39;101334.80;1761443;79;21055;-49
2021/05/31 01:28:52;;;;;;;4.72;4.28;;;;;;;22.42;53.51;101335.83;1712108;82;21053;-48
2021/05/31 01:31:27;;;;;;;4.53;4.22;;;;;;;22.38;53.80;101329.02;1718981;81;21600;-48
2021/05/31 01:33:54;;;;;;;4.83;4.20;;;;;;;22.35;54.03;101327.03;1646233;86;21087;-49
2021/05/31 01:36:22;;;;;;;6.12;4.83;;;;;;;22.30;54.30;101325.98;1653891;86;21651;-50
2021/05/31 01:38:49;;;;;;;5.33;4.35;;;;;;;22.27;54.72;101323.54;1640815;86;21068;-48
2021/05/31 01:41:17;;;;;;;5.15;4.42;;;;;;;22.25;54.61;101321.45;1631090;86;21089;-49
2021/05/31 01:43:44;;;;;;;4.70;3.65;;;;;;;22.25;54.31;101320.59;1631031;86;21113;-49
2021/05/31 01:46:13;;;;;;;4.10;3.65;;;;;;;22.22;54.25;101320.77;1635558;86;21097;-50
2021/05/31 01:48:41;;;;;;;5.28;3.55;;;;;;;22.20;54.02;101319.54;1630949;86;21172;-49
2021/05/31 01:51:08;;;;;;;3.25;3.02;;;;;;;22.18;53.46;101321.44;1635930;86;21151;-50
2021/05/31 01:53:36;;;;;;;3.95;3.15;;;;;;;22.20;53.20;101330.15;1637232;84;21077;-48
2021/05/31 01:56:04;;;;;;;3.30;2.62;;;;;;;22.19;52.73;101323.62;1630068;86;21044;-49
2021/05/31 01:58:31;;;;;;;5.28;2.92;;;;;;;22.19;52.16;101320.50;1633278;86;21065;-49
2021/05/31 02:00:58;;;;;;;2.83;2.30;;;;;;;22.20;51.23;101323.52;1644483;86;21615;-49
2021/05/31 02:03:24;;;;;;;3.08;2.47;;;;;;;22.23;50.81;101326.00;1632968;86;21166;-49
2021/05/31 02:05:52;;;;;;;7.65;2.95;;;;;;;22.21;50.48;101322.59;1631032;86;21578;-49
2021/05/31 02:08:18;;;;;;;4.97;2.60;;;;;;;22.20;50.34;101320.87;1636862;86;21658;-48
2021/05/31 02:10:46;;;;;;;4.70;2.67;;;;;;;22.18;50.43;101323.22;1645621;86;21060;-49
2021/05/31 02:13:15;;;;;;;2.90;2.60;;;;;;;22.15;50.18;101320.78;1656565;84;21117;-48
2021/05/31 02:16:00;;;;;;;3.05;2.58;;;;;;;22.14;50.30;101319.05;1636592;86;21146;-49
2021/05/31 02:18:38;;;;;;;2.67;2.47;;;;;;;22.14;50.10;101318.59;1649607;85;21178;-49
2021/05/31 02:21:10;;;;;;;2.50;2.15;;;;;;;22.16;50.11;101319.35;1571190;89;21138;-49
2021/05/31 02:23:37;;;;;;;2.17;2.08;;;;;;;22.19;49.85;101317.86;1580614;88;21126;-49
2021/05/31 02:26:04;;;;;;;3.67;2.20;;;;;;;22.20;49.60;101322.19;1642164;84;21082;-51
2021/05/31 02:28:31;;;;;;;3.92;2.62;;;;;;;22.21;49.52;101323.05;1665905;84;21628;-49
2021/05/31 02:30:59;;;;;;;3.52;2.83;;;;;;;22.20;50.10;101324.84;1670104;84;21068;-48
2021/05/31 02:33:26;;;;;;;4.72;2.50;;;;;;;22.18;50.62;101324.08;1644284;85;21072;-49
2021/05/31 02:35:53;;;;;;;3.40;2.92;;;;;;;22.17;51.13;101318.42;1670883;84;21114;-48
2021/05/31 02:38:19;;;;;;;8.50;3.62;;;;;;;22.15;52.23;101324.29;1672996;83;21641;-50
2021/05/31 02:40:46;;;;;;;4.58;3.70;;;;;;;22.14;52.97;101319.05;1672581;84;21086;-49
2021/05/31 02:43:13;;;;;;;5.00;3.52;;;;;;;22.13;53.39;101320.88;1668434;84;21073;-48
2021/05/31 02:45:40;;;;;;;8.25;3.45;;;;;;;22.10;53.44;101323.70;1666962;84;21302;-49
2021/05/31 02:48:08;;;;;;;5.60;3.15;;;;;;;22.07;53.87;101323.88;1668952;84;21108;-47
2021/05/31 02:50:35;;;;;;;4.87;3.10;;;;;;;22.06;53.91;101326.62;1671570;84;21042;-49
2021/05/31 02:53:02;;;;;;;2.95;2.72;;;;;;;22.02;53.79;101320.66;1667376;84;21073;-49
2021/05/31 02:55:30;;;;;;;3.00;2.80;;;;;;;21.99;54.04;101318.18;1669190;84;21090;-50
2021/05/31 02:57:58;;;;;;;3.50;2.90;;;;;;;22.01;53.85;101322.09;1688961;82;21679;-48
2021/05/31 03:00:26;;;;;;;3.27;2.98;;;;;;;21.95;53.62;101321.95;1705976;82;21050;-49
2021/05/31 03:02:54;;;;;;;4.58;3.95;;;;;;;21.92;53.74;101323.48;1709538;82;21056;-47
2021/05/31 03:05:26;;;;;;;7.92;3.17;;;;;;;21.94;53.67;101319.41;1717775;81;21084;-49
2021/05/31 03:07:52;;;;;;;5.55;3.25;;;;;;;21.93;53.59;101319.88;1715801;82;21067;-50
2021/05/31 03:10:19;;;;;;;3.58;3.08;;;;;;;21.93;53.49;101311.92;1713971;82;21590;-49
2021/05/31 03:12:45;;;;;;;4.72;2.52;;;;;;;21.94;53.47;101313.64;1700308;82;21069;-49
2021/05/31 03:15:16;;;;;;;4.62;3.60;;;;;;;21.90;53.41;101312.13;1728227;82;21044;-49
2021/05/31 03:17:47;;;;;;;2.72;2.52;;;;;;;21.94;52.97;101313.64;1741528;80;21037;-51
2021/05/31 03:20:16;;;;;;;3.37;2.80;;;;;;;21.96;52.55;101318.84;1773002;79;21583;-48
2021/05/31 03:22:42;;;;;;;3.98;2.70;;;;;;;21.95;52.19;101315.34;1769243;79;21036;-49
2021/05/31 03:25:11;;;;;;;3.98;2.40;;;;;;;21.96;52.02;101313.08;1770092;80;21036;-49
2021/05/31 03:27:40;;;;;;;3.42;2.33;;;;;;;21.97;51.93;101315.27;1769278;79;21048;-48
2021/05/31 03:30:09;;;;;;;2.67;2.47;;;;;;;21.95;51.95;101320.63;1775887;79;21033;-49
2021/05/31 03:32:37;;;;;;;2.52;2.30;;;;;;;21.89;52.08;101326.30;1774715;80;21001;-48
2021/05/31 03:35:05;;;;;;;3.00;2.55;;;;;;;21.90;52.16;101326.70;1763457;79;21044;-49
2021/05/31 03:37:34;;;;;;;6.00;2.33;;;;;;;21.93;51.82;101323.84;1767325;79;21084;-49
2021/05/31 03:40:00;;;;;;;2.55;2.20;;;;;;;21.95;51.79;101327.27;1774309;79;21583;-49
2021/05/31 03:42:27;;;;;;;3.00;2.50;;;;;;;21.97;51.79;101335.14;1767662;80;21016;-51
2021/05/31 03:44:55;;;;;;;5.33;2.90;;;;;;;21.96;51.93;101334.28;1769362;79;21064;-49
2021/05/31 03:47:23;;;;;;;3.70;2.45;;;;;;;21.95;52.26;101333.88;1777183;79;21048;-48
2021/05/31 03:49:49;;;;;;;2.55;2.35;;;;;;;21.97;52.58;101330.67;1780141;79;21029;-48
2021/05/31 03:52:17;;;;;;;3.08;2.70;;;;;;;21.92;52.86;101331.44;1767035;80;21080;-49
2021/05/31 03:54:43;;;;;;;4.95;3.08;;;;;;;21.88;52.97;101328.59;1790525;79;21036;-49
2021/05/31 03:57:11;;;;;;;7.70;5.10;;;;;;;21.85;53.09;101330.08;1766044;80;21048;-49
2021/05/31 03:59:37;;;;;;;10.18;5.12;;;;;;;21.83;53.12;101322.69;1781199;79;21103;-47
2021/05/31 04:02:04;;;;;;;7.67;4.40;;;;;;;21.77;53.02;101323.02;1786357;79;21111;-48
2021/05/31 04:04:40;;;;;;;5.05;3.70;;;;;;;21.80;52.98;101325.51;1771670;79;21012;-49
2021/05/31 04:12:31;;;;;;;4.58;3.62;;;;;;;21.76;52.50;101319.52;1788356;79;21075;-50
2021/05/31 04:14:58;;;;;;;8.68;4.45;;;;;;;21.72;52.00;101313.19;1771559;80;21072;-49
2021/05/31 04:17:25;;;;;;;4.15;3.00;;;;;;;21.69;52.17;101309.38;1782956;79;21032;-49
2021/05/31 04:19:53;;;;;;;5.08;3.10;;;;;;;21.69;52.63;101309.38;1781684;79;21052;-49
2021/05/31 04:22:20;;;;;;;3.08;2.60;;;;;;;21.70;52.52;101309.78;1767257;79;21579;-50
2021/05/31 04:24:48;;;;;;;4.97;3.10;;;;;;;21.72;52.31;101307.89;1767792;80;21056;-50
2021/05/31 04:27:14;;;;;;;2.72;2.45;;;;;;;21.76;52.33;101310.73;1773448;80;21552;-50
2021/05/31 04:29:41;;;;;;;3.98;2.42;;;;;;;21.81;52.21;101312.63;1769705;79;21114;-50
2021/05/31 04:32:08;;;;;;;2.62;2.30;;;;;;;21.87;52.01;101314.95;1771905;79;21592;-49
2021/05/31 04:34:35;;;;;;;2.50;2.30;;;;;;;21.94;51.76;101313.64;1774735;79;21092;-50
2021/05/31 04:37:03;;;;;;;2.25;2.00;;;;;;;22.02;51.67;101315.36;1717198;82;21042;-50
2021/05/31 04:39:30;;;;;;;3.42;2.60;;;;;;;22.10;51.16;101315.75;1780136;79;21154;-50
2021/05/31 04:41:57;;;;;;;4.05;2.33;;;;;;;22.13;51.03;101314.25;1768343;80;21072;-50
2021/05/31 04:44:24;;;;;;;5.50;2.50;;;;;;;22.18;50.76;101321.44;1773288;80;21657;-49
2021/05/31 04:46:51;;;;;;;4.92;2.47;;;;;;;22.21;50.53;101320.41;1765929;79;21146;-51
2021/05/31 04:49:19;;;;;;;3.08;2.40;;;;;;;22.22;50.51;101322.95;1768340;79;21052;-51
2021/05/31 04:51:45;;;;;;;3.55;2.47;;;;;;;22.24;50.42;101309.59;1763015;80;21040;-51
2021/05/31 04:54:12;;;;;;;6.80;2.37;;;;;;;22.25;50.46;101316.16;1784647;79;21087;-51
2021/05/31 04:56:41;;;;;;;3.42;2.30;;;;;;;22.26;50.30;101316.98;1772009;79;21087;-50
2021/05/31 04:59:07;;;;;;;5.10;2.60;;;;;;;22.28;50.36;101313.30;1778937;79;21064;-50
2021/05/31 05:01:36;;;;;;;3.37;2.35;;;;;;;22.33;50.51;101317.86;1776772;79;21064;-51
2021/05/31 05:04:05;;;;;;;4.45;2.55;;;;;;;22.35;50.40;101319.94;1785215;79;21052;-51
2021/05/31 05:06:31;;;;;;;3.67;2.62;;;;;;;22.38;50.32;101318.41;1773205;79;21564;-51
2021/05/31 05:08:58;;;;;;;3.22;2.50;;;;;;;22.40;50.22;101319.16;1781527;79;21036;-50
2021/05/31 05:11:25;;;;;;;4.05;2.20;;;;;;;22.45;50.05;101320.22;1781446;79;21068;-50
2021/05/31 05:13:52;;;;;;;5.37;2.12;;;;;;;22.51;49.71;101323.34;1784701;79;21088;-51
2021/05/31 05:16:20;;;;;;;5.92;2.40;;;;;;;22.56;49.51;101324.39;1775302;79;21080;-50
2021/05/31 05:18:49;;;;;;;3.12;2.52;;;;;;;22.57;49.64;101325.61;1771340;79;21570;-50
2021/05/31 05:21:17;;;;;;;3.45;2.37;;;;;;;22.58;49.37;101326.51;1776212;80;21052;-51
2021/05/31 05:23:46;;;;;;;3.65;2.37;;;;;;;22.57;49.47;101320.30;1783789;79;21095;-50
2021/05/31 05:26:14;;;;;;;4.20;2.10;;;;;;;22.57;49.48;101318.98;1773068;79;21021;-51
2021/05/31 05:28:41;;;;;;;3.85;2.35;;;;;;;22.58;49.41;101323.39;1777616;79;21055;-50
2021/05/31 05:31:10;;;;;;;5.15;2.72;;;;;;;22.57;49.46;101325.61;1767655;80;21027;-51
2021/05/31 05:33:42;;;;;;;4.25;2.77;;;;;;;22.59;49.56;101326.41;1770215;79;21093;-50
2021/05/31 05:44:37;;;;;;;4.05;2.62;;;;;;;22.72;50.27;101319.00;1769686;79;21554;-50
2021/05/31 05:46:50;;;;;;;4.12;2.67;;;;;;;22.77;50.45;101318.25;1772939;79;21004;-51
2021/05/31 05:49:15;;;;;;;4.70;2.62;;;;;;;22.85;50.48;101313.30;1763405;79;21071;-51
2021/05/31 05:51:42;;;;;;;5.15;2.70;;;;;;;22.91;50.28;101303.63;1773496;79;21523;-51
2021/05/31 05:54:08;;;;;;;4.55;3.15;;;;;;;22.92;50.46;101303.98;1797061;79;21104;-51
2021/05/31 05:56:35;;;;;;;3.67;2.52;;;;;;;22.96;50.22;101301.50;1779695;79;21060;-51
2021/05/31 05:59:02;;;;;;;3.20;2.90;;;;;;;22.99;50.36;101295.55;1777549;80;22166;-49
2021/05/31 06:01:29;;;;;;;4.67;2.87;;;;;;;22.97;50.36;101297.91;1774908;79;21087;-47
2021/05/31 06:03:57;;;;;;;4.95;3.20;;;;;;;22.98;50.31;101299.64;1776550;79;21099;-48
2021/05/31 06:06:25;;;;;;;4.47;2.70;;;;;;;22.97;50.37;101293.47;1767339;80;21061;-51
2021/05/31 06:08:52;;;;;;;3.72;2.52;;;;;;;22.99;50.03;101296.02;1784360;79;21091;-51
2021/05/31 06:11:19;;;;;;;3.20;2.90;;;;;;;23.00;50.37;101297.73;1774169;79;21028;-51
2021/05/31 06:13:50;;;;;;;4.83;3.00;;;;;;;23.04;50.17;101295.25;1777066;79;21035;-51
2021/05/31 06:16:15;;;;;;;4.53;2.77;;;;;;;23.05;50.14;101300.92;1777490;79;21084;-50
2021/05/31 06:18:42;;;;;;;6.17;3.20;;;;;;;23.03;50.25;101299.70;1773628;79;21064;-51
2021/05/31 06:21:08;;;;;;;4.95;3.00;;;;;;;23.02;50.50;101293.17;1775624;79;21579;-51
2021/05/31 06:23:35;;;;;;;3.22;2.72;;;;;;;23.00;50.72;101295.08;1789279;79;21032;-48
2021/05/31 06:26:03;;;;;;;5.33;3.00;;;;;;;22.96;50.90;101290.89;1777474;79;21150;-51
2021/05/31 06:28:30;;;;;;;5.78;3.40;;;;;;;22.94;50.92;101294.12;1776845;80;21025;-49
2021/05/31 06:30:57;;;;;;;4.90;3.37;;;;;;;22.93;50.87;101292.43;1771921;80;21048;-49
2021/05/31 06:33:23;;;;;;;6.55;3.45;;;;;;;22.89;51.15;101295.77;1770688;79;21047;-50
2021/05/31 06:35:51;;;;;;;4.50;4.03;;;;;;;22.89;51.46;101298.89;1764775;80;21043;-51
2021/05/31 06:38:18;;;;;;;5.45;3.65;;;;;;;22.90;51.45;101297.92;1773676;80;21049;-50
2021/05/31 06:40:44;;;;;;;5.97;3.58;;;;;;;22.91;51.61;101300.97;1778282;79;21072;-51
2021/05/31 06:43:11;;;;;;;4.65;3.17;;;;;;;22.93;51.57;101295.09;1765418;80;21001;-51
2021/05/31 06:45:38;;;;;;;5.92;3.20;;;;;;;22.93;51.48;101292.43;1782310;79;21037;-48
2021/05/31 06:48:06;;;;;;;6.90;4.10;;;;;;;22.92;51.50;101298.20;1774423;79;21106;-51
2021/05/31 06:50:33;;;;;;;7.55;3.75;;;;;;;22.90;51.52;101293.94;1774489;79;21068;-51
2021/05/31 06:53:01;;;;;;;4.75;3.37;;;;;;;22.87;51.82;101296.80;1780277;79;21029;-51
2021/05/31 06:55:30;;;;;;;5.67;3.37;;;;;;;22.84;51.98;101295.66;1776887;80;21061;-48
2021/05/31 06:57:58;;;;;;;7.42;3.67;;;;;;;22.83;51.88;101297.95;1774885;79;21039;-49
2021/05/31 07:00:26;;;;;;;5.28;3.10;;;;;;;22.82;51.82;101296.23;1778810;79;21071;-49
2021/05/31 07:02:53;;;;;;;5.85;3.55;;;;;;;22.82;51.88;101302.87;1769964;80;21044;-49
2021/05/31 07:05:20;;;;;;;6.15;3.37;;;;;;;22.81;52.05;101302.04;1780854;79;21021;-48
2021/05/31 07:07:47;;;;;;;4.85;3.65;;;;;;;22.81;51.83;101303.83;1758361;80;21706;-51
2021/05/31 07:10:15;;;;;;;8.28;3.62;;;;;;;22.79;52.11;101299.95;1766227;79;21050;-50
2021/05/31 07:12:42;;;;;;;7.83;3.90;;;;;;;22.80;52.24;101306.09;1770977;79;21602;-52
2021/05/31 07:15:12;;;;;;;4.37;3.20;;;;;;;22.78;52.17;101303.55;1772977;79;21299;-51
2021/05/31 07:17:39;;;;;;;5.83;3.92;;;;;;;22.77;52.18;101297.02;1771281;80;21045;-49
2021/05/31 07:20:10;;;;;;;4.95;3.17;;;;;;;22.79;52.11;101296.45;1773831;79;21563;-51
2021/05/31 07:22:38;;;;;;;6.20;3.87;;;;;;;22.82;52.27;101297.56;1768130;79;21005;-51
2021/05/31 07:25:07;;;;;;;7.53;3.50;;;;;;;22.85;52.43;101285.44;1766594;79;21071;-51
2021/05/31 07:27:34;;;;;;;7.90;4.20;;;;;;;22.84;52.04;101283.25;1778054;79;21074;-52
2021/05/31 07:30:02;;;;;;;6.25;3.67;;;;;;;22.85;52.18;101289.42;1779054;79;21071;-51
2021/05/31 07:32:28;;;;;;;6.47;4.08;;;;;;;22.87;52.26;101282.21;1794104;79;21060;-50
2021/05/31 07:34:56;;;;;;;7.10;3.77;;;;;;;22.87;52.23;101287.05;1784103;79;21152;-51
2021/05/31 07:37:24;;;;;;;4.33;3.77;;;;;;;22.86;52.42;101287.13;1771733;80;21086;-51
2021/05/31 07:39:50;;;;;;;7.42;3.55;;;;;;;22.82;52.50;101281.64;1759111;79;21558;-52
2021/05/31 07:42:18;;;;;;;4.90;4.05;;;;;;;22.81;52.76;101283.94;1782148;79;21075;-51
2021/05/31 07:44:44;;;;;;;5.95;3.85;;;;;;;22.84;53.05;101285.05;1779807;80;21583;-51
2021/05/31 07:47:13;;;;;;;6.87;4.35;;;;;;;22.84;53.19;101285.05;1766379;80;21033;-49
2021/05/31 07:49:39;;;;;;;4.50;3.75;;;;;;;22.90;53.35;101288.63;1764121;79;21058;-50
2021/05/31 07:52:19;;;;;;;3.50;3.20;;;;;;;22.92;53.27;101284.08;1773997;80;21158;-52
2021/05/31 07:54:38;;;;;;;5.25;3.27;;;;;;;22.96;53.15;101280.27;1763035;79;21092;-50
2021/05/31 07:57:06;;;;;;;3.80;3.37;;;;;;;22.99;53.23;101288.05;1778440;80;21047;-51
2021/05/31 07:59:34;;;;;;;4.42;3.65;;;;;;;23.05;52.83;101286.33;1772235;79;21053;-50
2021/05/31 08:02:00;;;;;;;5.08;3.08;;;;;;;23.08;52.85;101280.33;1780847;79;21626;-51
2021/05/31 08:04:28;;;;;;;4.90;3.50;;;;;;;23.13;52.87;101284.02;1767062;79;21051;-50
2021/05/31 08:06:59;;;;;;;8.15;3.70;;;;;;;23.19;52.65;101284.94;1777106;80;21572;-49
2021/05/31 08:09:24;;;;;;;5.25;2.98;;;;;;;23.24;52.59;101284.18;1771858;80;21088;-49
2021/05/31 08:11:51;;;;;;;5.55;3.70;;;;;;;23.32;52.57;101277.91;1765234;80;21054;-49
2021/05/31 08:14:19;;;;;;;4.65;3.45;;;;;;;23.38;52.70;101285.47;1766938;79;21586;-50
2021/05/31 08:16:48;;;;;;;7.72;3.95;;;;;;;23.46;52.40;101281.83;1778492;79;21044;-49
2021/05/31 08:19:16;;;;;;;5.30;3.35;;;;;;;23.52;52.14;101281.41;1768153;79;21021;-50
2021/05/31 08:21:44;;;;;;;5.40;3.40;;;;;;;23.58;52.25;101274.36;1769797;79;21029;-49
2021/05/31 08:24:11;;;;;;;3.42;3.08;;;;;;;23.65;52.18;101276.99;1773320;79;21057;-49
2021/05/31 08:26:39;;;;;;;6.75;3.22;;;;;;;23.73;51.54;101279.97;1765394;80;21028;-50
2021/05/31 08:29:07;;;;;;;4.62;3.20;;;;;;;23.79;51.29;101272.91;1776902;80;21568;-50
2021/05/31 08:31:35;;;;;;;4.08;3.67;;;;;;;23.83;50.79;101271.75;1783534;79;21045;-49
2021/05/31 08:34:02;;;;;;;7.05;3.70;;;;;;;23.86;50.74;101264.91;1776005;79;21060;-50
2021/05/31 08:36:28;;;;;;;3.40;3.10;;;;;;;23.92;50.49;101264.95;1765494;79;21061;-49
2021/05/31 08:38:58;;;;;;;4.15;3.00;;;;;;;23.97;50.36;101266.33;1776386;79;21531;-49
2021/05/31 08:41:27;;;;;;;4.25;3.10;;;;;;;24.02;50.35;101261.55;1783888;79;21048;-50
2021/05/31 08:43:54;;;;;;;4.47;3.35;;;;;;;24.07;50.15;101263.43;1769659;79;21044;-49
2021/05/31 08:46:21;;;;;;;3.47;3.17;;;;;;;24.11;49.71;101263.59;1767543;79;21045;-49
2021/05/31 08:48:48;;;;;;;8.83;3.98;;;;;;;24.14;50.06;101255.41;1783280;79;21149;-49
2021/05/31 08:51:17;;;;;;;5.28;3.60;;;;;;;24.20;50.08;101258.97;1778438;79;21060;-49
2021/05/31 08:53:44;;;;;;;5.15;3.85;;;;;;;24.28;49.84;101258.92;1767477;79;21069;-48
2021/05/31 08:56:11;;;;;;;5.15;3.52;;;;;;;24.36;49.51;101262.71;1774409;79;21055;-49
2021/05/31 08:58:38;;;;;;;3.47;3.17;;;;;;;24.46;49.04;101260.27;1780423;79;21090;-49
2021/05/31 09:01:06;;;;;;;4.75;4.33;;;;;;;24.54;48.92;101264.56;1771736;80;21527;-50
2021/05/31 09:03:32;;;;;;;7.65;3.87;;;;;;;24.61;49.12;101251.16;1775958;79;21165;-48
2021/05/31 09:06:00;;;;;;;5.00;3.92;;;;;;;24.70;49.16;101258.50;1779161;79;21064;-49
2021/05/31 09:08:28;;;;;;;5.67;3.52;;;;;;;24.78;48.74;101262.81;1770153;80;21084;-50
2021/05/31 09:11:06;;;;;;;7.85;3.75;;;;;;;24.85;48.46;101262.75;1780660;79;21032;-49
2021/05/31 09:13:40;;;;;;;5.00;3.33;;;;;;;24.94;48.82;101259.39;1773048;80;21364;-49
2021/05/31 09:16:17;;;;;;;4.78;3.58;;;;;;;25.03;48.86;101262.25;1777535;79;21095;-49
2021/05/31 09:18:58;;;;;;;5.67;3.10;;;;;;;25.16;48.74;101263.53;1790748;79;21559;-49
2021/05/31 09:21:32;;;;;;;6.05;3.17;;;;;;;25.24;48.40;101257.15;1782511;79;21039;-49
2021/05/31 09:24:04;;;;;;;4.55;3.27;;;;;;;25.30;48.41;101256.69;1766988;79;21075;-49
2021/05/31 09:26:31;;;;;;;3.58;3.27;;;;;;;25.36;48.14;101262.03;1765545;80;21055;-49
2021/05/31 09:29:03;;;;;;;7.72;3.92;;;;;;;25.38;48.16;101258.29;1779134;79;22524;-49
2021/05/31 09:31:30;;;;;;;5.90;3.47;;;;;;;25.39;47.90;101258.64;1763930;79;21119;-48
2021/05/31 09:34:06;;;;;;;4.28;3.72;;;;;;;25.39;47.84;101254.64;1770962;79;21807;-49
2021/05/31 09:36:50;;;;;;;4.22;3.83;;;;;;;25.37;47.91;101255.24;1657426;85;21117;-49
2021/05/31 09:39:18;;;;;;;5.80;3.50;;;;;;;25.34;47.80;101258.16;1595133;89;21108;-49
2021/05/31 09:41:45;;;;;;;4.30;3.50;;;;;;;25.29;48.05;101257.64;1578199;89;21133;-48
2021/05/31 09:44:13;;;;;;;7.78;3.77;;;;;;;25.28;48.11;101255.95;1557943;91;21763;-49
2021/05/31 09:46:46;;;;;;;4.17;3.50;;;;;;;25.26;48.16;101253.03;1541870;91;21277;-49
2021/05/31 09:49:25;;;;;;;4.15;3.72;;;;;;;25.28;48.27;101257.28;1544343;91;21126;-48
2021/05/31 09:51:57;;;;;;;4.80;3.72;;;;;;;25.32;48.21;101250.76;1543857;91;21201;-48
2021/05/31 09:54:33;;;;;;;3.58;3.05;;;;;;;25.34;48.07;101250.64;1543400;92;21079;-48
2021/05/31 09:57:03;;;;;;;3.65;2.98;;;;;;;25.36;48.10;101244.71;1549791;91;21131;-49
2021/05/31 09:59:31;;;;;;;3.65;3.35;;;;;;;25.40;48.14;101248.36;1492331;95;21114;-48
2021/05/31 10:02:03;;;;;;;4.67;3.00;;;;;;;25.46;47.85;101243.94;1493593;95;21144;-49
2021/05/31 10:09:23;;;;;;;3.50;3.20;;;;;;;25.65;47.18;101244.23;1539857;93;21707;-49
2021/05/31 10:11:50;;;;;;;4.72;3.08;;;;;;;25.70;47.29;101244.72;1541823;92;21124;-50
2021/05/31 10:14:19;;;;;;;3.08;2.80;;;;;;;25.74;47.25;101250.66;1518596;93;21168;-49
2021/05/31 10:16:48;;;;;;;4.50;2.90;;;;;;;25.78;47.12;101242.31;1499723;94;21097;-50
2021/05/31 10:19:14;;;;;;;2.92;2.72;;;;;;;25.82;46.99;101242.44;1537012;92;21147;-49
2021/05/31 10:21:43;;;;;;;3.47;3.22;;;;;;;25.88;46.62;101238.47;1539958;92;21645;-50
2021/05/31 10:24:10;;;;;;;3.33;3.12;;;;;;;25.94;46.26;101241.13;1518447;93;21628;-52
2021/05/31 10:26:37;;;;;;;4.70;3.47;;;;;;;25.98;46.36;101237.25;1545836;91;21499;-49
2021/05/31 10:29:05;;;;;;;3.20;3.00;;;;;;;26.01;46.40;101234.36;1519722;91;21159;-50
2021/05/31 10:31:45;;;;;;;3.72;2.83;;;;;;;26.03;46.16;101232.42;1512400;93;21121;-51
2021/05/31 10:34:20;;;;;;;3.08;2.87;;;;;;;26.07;46.16;101228.55;1590618;88;21168;-50
2021/05/31 10:36:52;;;;;;;3.40;3.10;;;;;;;26.13;45.90;101224.09;1651132;83;21072;-50
2021/05/31 10:39:27;;;;;;;6.08;3.40;;;;;;;26.14;46.00;101222.63;1727834;81;21067;-49
2021/05/31 10:42:06;;;;;;;4.05;3.35;;;;;;;26.14;46.00;101222.63;1724544;82;21079;-49
2021/05/31 10:44:33;;;;;;;5.90;3.22;;;;;;;26.20;45.49;101220.81;1730569;82;21036;-49
2021/05/31 10:47:13;;;;;;;5.30;4.80;;;;;;;26.24;45.72;101216.06;1731036;81;21036;-49
2021/05/31 10:49:39;;;;;;;8.98;8.08;;;;;;;26.30;45.42;101211.58;1718004;82;21061;-49
2021/05/31 10:52:06;;;;;;;13.28;9.45;;;;;;;26.34;46.06;101207.69;1745828;82;21123;-49
2021/05/31 10:54:36;;;;;;;11.57;10.38;;;;;;;26.38;46.55;101210.47;1713789;82;21571;-50
2021/05/31 10:57:06;;;;;;;13.03;11.60;;;;;;;26.50;46.30;101209.00;1741681;81;21040;-49
2021/05/31 10:59:37;;;;;;;16.82;13.15;;;;;;;26.50;46.30;101209.00;1661504;84;21095;-50
2021/05/31 11:02:04;;;;;;;15.55;12.50;;;;;;;26.59;45.84;101199.41;1650619;85;21103;-49
2021/05/31 11:04:31;;;;;;;14.40;12.65;;;;;;;26.59;45.84;101199.41;1652680;86;21630;-50
2021/05/31 11:07:01;;;;;;;11.97;10.78;;;;;;;26.68;45.59;101201.34;1658568;85;21127;-49
2021/05/31 11:09:33;;;;;;;10.43;9.43;;;;;;;26.75;45.19;101201.21;1657223;84;21765;-49
2021/05/31 11:14:44;;;;;;;8.00;7.17;;;;;;;26.89;44.59;101198.28;1641358;86;21045;-49
2021/05/31 11:17:18;;;;;;;8.73;7.37;;;;;;;26.96;44.49;101192.77;1645498;86;21090;-50
2021/05/31 11:19:50;;;;;;;7.72;7.03;;;;;;;27.05;43.90;101186.67;1651336;87;21046;-49
2021/05/31 11:22:22;;;;;;;6.53;5.70;;;;;;;27.14;43.56;101187.73;1651483;87;21085;-49
2021/05/31 11:25:00;;;;;;;9.13;6.90;;;;;;;27.19;43.50;101185.51;1651526;86;21029;-50
2021/05/31 11:27:35;;;;;;;7.25;5.80;;;;;;;27.24;43.38;101180.64;1625796;87;21097;-49
2021/05/31 11:30:07;;;;;;;7.10;6.05;;;;;;;27.27;43.11;101179.87;1606606;89;21083;-50
2021/05/31 11:32:36;;;;;;;5.62;4.78;;;;;;;27.28;43.01;101176.25;1458244;98;21142;-50
2021/05/31 11:35:15;;;;;;;6.62;4.55;;;;;;;27.29;42.63;101179.27;1458356;98;21181;-50
2021/05/31 11:37:43;;;;;;;4.62;3.90;;;;;;;27.28;42.74;101173.58;1427296;100;21171;-50
2021/05/31 11:40:23;;;;;;;5.05;4.05;;;;;;;27.29;42.41;101173.92;1435524;100;21153;-49
2021/05/31 11:42:55;;;;;;;3.58;3.27;;;;;;;27.27;42.24;101169.19;1436097;99;21146;-50
2021/05/31 11:45:24;;;;;;;9.73;3.50;;;;;;;27.28;42.17;101172.72;1397145;102;21202;-50
2021/05/31 11:47:59;;;;;;;4.08;3.47;;;;;;;27.30;42.45;101168.95;1399082;101;21136;-50
2021/05/31 11:50:26;;;;;;;6.42;4.25;;;;;;;27.35;42.15;101164.08;1409906;101;21690;-50
2021/05/31 11:52:53;;;;;;;3.35;3.05;;;;;;;27.39;41.88;101165.98;1369851;105;21277;-50